sensor_id;sensor_type;location;lat;lon;timestamp;P1;durP1;ratioP1;P2;durP2;ratioP2
30420;SDS011;17218;54.070;10.012;2024-01-30T00:00:23;8.85;;;6.70;;
30420;SDS011;17218;54.070;10.012;2024-01-30T00:02:49;9.02;;;5.88;;
30420;SDS011;17218;54.070;10.012;2024-01-30T00:05:16;8.18;;;5.97;;
30420;SDS011;17218;54.070;10.012;2024-01-30T00:07:43;8.68;;;6.10;;
30420;SDS011;17218;54.070;10.012;2024-01-30T00:10:11;9.57;;;5.45;;
30420;SDS011;17218;54.070;10.012;2024-01-30T00:12:37;10.35;;;6.28;;
30420;SDS011;17218;54.070;10.012;2024-01-30T00:15:04;6.80;;;5.25;;
30420;SDS011;17218;54.070;10.012;2024-01-30T00:17:34;7.82;;;5.20;;
30420;SDS011;17218;54.070;10.012;2024-01-30T00:20:01;9.35;;;5.68;;
30420;SDS011;17218;54.070;10.012;2024-01-30T00:22:30;7.35;;;5.20;;
30420;SDS011;17218;54.070;10.012;2024-01-30T00:24:56;14.18;;;6.47;;
30420;SDS011;17218;54.070;10.012;2024-01-30T00:27:25;10.88;;;7.22;;
30420;SDS011;17218;54.070;10.012;2024-01-30T00:29:52;10.75;;;6.38;;
30420;SDS011;17218;54.070;10.012;2024-01-30T00:32:18;10.00;;;6.07;;
30420;SDS011;17218;54.070;10.012;2024-01-30T00:34:45;10.52;;;6.15;;
30420;SDS011;17218;54.070;10.012;2024-01-30T00:37:11;9.55;;;6.38;;
30420;SDS011;17218;54.070;10.012;2024-01-30T00:39:38;10.48;;;6.07;;
30420;SDS011;17218;54.070;10.012;2024-01-30T00:42:05;9.70;;;6.13;;
30420;SDS011;17218;54.070;10.012;2024-01-30T00:44:34;8.23;;;5.75;;
30420;SDS011;17218;54.070;10.012;2024-01-30T00:47:02;8.20;;;6.15;;
30420;SDS011;17218;54.070;10.012;2024-01-30T00:49:28;7.60;;;5.90;;
30420;SDS011;17218;54.070;10.012;2024-01-30T00:51:55;10.73;;;6.63;;
30420;SDS011;17218;54.070;10.012;2024-01-30T00:54:21;9.48;;;6.03;;
30420;SDS011;17218;54.070;10.012;2024-01-30T00:56:48;9.00;;;6.03;;
30420;SDS011;17218;54.070;10.012;2024-01-30T00:59:15;9.68;;;6.60;;
30420;SDS011;17218;54.070;10.012;2024-01-30T01:01:43;10.18;;;5.55;;
30420;SDS011;17218;54.070;10.012;2024-01-30T01:04:09;9.93;;;6.32;;
30420;SDS011;17218;54.070;10.012;2024-01-30T01:06:36;7.75;;;5.85;;
30420;SDS011;17218;54.070;10.012;2024-01-30T01:09:02;10.60;;;6.38;;
30420;SDS011;17218;54.070;10.012;2024-01-30T01:11:29;10.07;;;5.63;;
30420;SDS011;17218;54.070;10.012;2024-01-30T01:13:56;8.50;;;5.95;;
30420;SDS011;17218;54.070;10.012;2024-01-30T01:16:23;9.73;;;5.65;;
30420;SDS011;17218;54.070;10.012;2024-01-30T01:18:51;8.90;;;6.13;;
30420;SDS011;17218;54.070;10.012;2024-01-30T01:21:17;7.70;;;5.47;;
30420;SDS011;17218;54.070;10.012;2024-01-30T01:23:44;9.45;;;5.78;;
30420;SDS011;17218;54.070;10.012;2024-01-30T01:26:10;8.93;;;5.50;;
30420;SDS011;17218;54.070;10.012;2024-01-30T01:28:37;9.77;;;5.85;;
30420;SDS011;17218;54.070;10.012;2024-01-30T01:31:05;8.05;;;5.43;;
30420;SDS011;17218;54.070;10.012;2024-01-30T01:33:32;12.45;;;6.43;;
30420;SDS011;17218;54.070;10.012;2024-01-30T01:36:00;11.85;;;6.85;;
30420;SDS011;17218;54.070;10.012;2024-01-30T01:38:27;10.23;;;5.57;;
30420;SDS011;17218;54.070;10.012;2024-01-30T01:40:54;10.07;;;6.70;;
30420;SDS011;17218;54.070;10.012;2024-01-30T01:43:20;9.43;;;6.80;;
30420;SDS011;17218;54.070;10.012;2024-01-30T01:45:47;10.93;;;7.30;;
30420;SDS011;17218;54.070;10.012;2024-01-30T01:48:14;12.85;;;6.80;;
30420;SDS011;17218;54.070;10.012;2024-01-30T01:50:40;12.30;;;6.50;;
30420;SDS011;17218;54.070;10.012;2024-01-30T01:53:10;14.55;;;6.45;;
30420;SDS011;17218;54.070;10.012;2024-01-30T01:55:36;12.48;;;7.13;;
30420;SDS011;17218;54.070;10.012;2024-01-30T01:58:03;9.18;;;6.40;;
30420;SDS011;17218;54.070;10.012;2024-01-30T02:00:31;7.88;;;5.40;;
30420;SDS011;17218;54.070;10.012;2024-01-30T02:02:57;9.63;;;7.05;;
30420;SDS011;17218;54.070;10.012;2024-01-30T02:05:25;11.90;;;6.45;;
30420;SDS011;17218;54.070;10.012;2024-01-30T02:07:52;11.40;;;7.30;;
30420;SDS011;17218;54.070;10.012;2024-01-30T02:10:20;10.68;;;6.55;;
30420;SDS011;17218;54.070;10.012;2024-01-30T02:12:48;8.88;;;6.18;;
30420;SDS011;17218;54.070;10.012;2024-01-30T02:15:15;11.10;;;6.53;;
30420;SDS011;17218;54.070;10.012;2024-01-30T02:17:41;11.87;;;6.93;;
30420;SDS011;17218;54.070;10.012;2024-01-30T02:20:08;9.23;;;6.63;;
30420;SDS011;17218;54.070;10.012;2024-01-30T02:22:37;9.55;;;5.65;;
30420;SDS011;17218;54.070;10.012;2024-01-30T02:25:07;9.10;;;5.75;;
30420;SDS011;17218;54.070;10.012;2024-01-30T02:27:34;8.63;;;5.78;;
30420;SDS011;17218;54.070;10.012;2024-01-30T02:30:00;7.40;;;5.75;;
30420;SDS011;17218;54.070;10.012;2024-01-30T02:32:27;10.30;;;6.25;;
30420;SDS011;17218;54.070;10.012;2024-01-30T02:34:54;14.18;;;5.55;;
30420;SDS011;17218;54.070;10.012;2024-01-30T02:37:20;9.20;;;5.20;;
30420;SDS011;17218;54.070;10.012;2024-01-30T02:39:48;10.75;;;4.65;;
30420;SDS011;17218;54.070;10.012;2024-01-30T02:42:15;10.07;;;6.18;;
30420;SDS011;17218;54.070;10.012;2024-01-30T02:44:41;9.20;;;4.78;;
30420;SDS011;17218;54.070;10.012;2024-01-30T02:47:08;7.63;;;5.00;;
30420;SDS011;17218;54.070;10.012;2024-01-30T02:49:34;8.27;;;4.97;;
30420;SDS011;17218;54.070;10.012;2024-01-30T02:52:01;8.85;;;5.15;;
30420;SDS011;17218;54.070;10.012;2024-01-30T02:54:28;9.50;;;5.00;;
30420;SDS011;17218;54.070;10.012;2024-01-30T02:56:57;8.15;;;4.97;;
30420;SDS011;17218;54.070;10.012;2024-01-30T02:59:23;6.45;;;4.93;;
30420;SDS011;17218;54.070;10.012;2024-01-30T03:01:50;9.82;;;5.50;;
30420;SDS011;17218;54.070;10.012;2024-01-30T03:04:16;7.97;;;5.07;;
30420;SDS011;17218;54.070;10.012;2024-01-30T03:06:44;7.55;;;5.20;;
30420;SDS011;17218;54.070;10.012;2024-01-30T03:09:12;9.43;;;6.00;;
30420;SDS011;17218;54.070;10.012;2024-01-30T03:11:38;10.10;;;5.90;;
30420;SDS011;17218;54.070;10.012;2024-01-30T03:14:06;8.23;;;5.03;;
30420;SDS011;17218;54.070;10.012;2024-01-30T03:16:33;7.60;;;5.43;;
30420;SDS011;17218;54.070;10.012;2024-01-30T03:18:59;8.55;;;5.47;;
30420;SDS011;17218;54.070;10.012;2024-01-30T03:21:27;7.60;;;5.38;;
30420;SDS011;17218;54.070;10.012;2024-01-30T03:23:53;6.07;;;4.85;;
30420;SDS011;17218;54.070;10.012;2024-01-30T03:26:20;9.55;;;5.43;;
30420;SDS011;17218;54.070;10.012;2024-01-30T03:28:46;8.17;;;5.37;;
30420;SDS011;17218;54.070;10.012;2024-01-30T03:31:15;9.80;;;5.10;;
30420;SDS011;17218;54.070;10.012;2024-01-30T03:33:42;7.17;;;5.07;;
30420;SDS011;17218;54.070;10.012;2024-01-30T03:36:08;7.85;;;4.65;;
30420;SDS011;17218;54.070;10.012;2024-01-30T03:38:35;6.80;;;4.67;;
30420;SDS011;17218;54.070;10.012;2024-01-30T03:41:02;9.38;;;4.78;;
30420;SDS011;17218;54.070;10.012;2024-01-30T03:43:29;7.20;;;4.93;;
30420;SDS011;17218;54.070;10.012;2024-01-30T03:45:55;8.43;;;4.87;;
30420;SDS011;17218;54.070;10.012;2024-01-30T03:48:23;7.50;;;4.63;;
30420;SDS011;17218;54.070;10.012;2024-01-30T03:50:50;8.83;;;5.07;;
30420;SDS011;17218;54.070;10.012;2024-01-30T03:53:17;7.93;;;4.93;;
30420;SDS011;17218;54.070;10.012;2024-01-30T03:55:43;5.77;;;4.53;;
30420;SDS011;17218;54.070;10.012;2024-01-30T03:58:10;6.87;;;4.87;;
30420;SDS011;17218;54.070;10.012;2024-01-30T04:00:37;8.10;;;4.77;;
30420;SDS011;17218;54.070;10.012;2024-01-30T04:03:02;6.03;;;4.27;;
30420;SDS011;17218;54.070;10.012;2024-01-30T04:05:30;7.13;;;4.37;;
30420;SDS011;17218;54.070;10.012;2024-01-30T04:07:57;6.50;;;4.77;;
30420;SDS011;17218;54.070;10.012;2024-01-30T04:10:24;6.63;;;4.70;;
30420;SDS011;17218;54.070;10.012;2024-01-30T04:12:50;6.70;;;4.37;;
30420;SDS011;17218;54.070;10.012;2024-01-30T04:15:19;7.30;;;4.33;;
30420;SDS011;17218;54.070;10.012;2024-01-30T04:17:45;5.80;;;4.63;;
30420;SDS011;17218;54.070;10.012;2024-01-30T04:20:13;7.63;;;5.13;;
30420;SDS011;17218;54.070;10.012;2024-01-30T04:22:43;7.10;;;4.87;;
30420;SDS011;17218;54.070;10.012;2024-01-30T04:25:10;7.57;;;4.20;;
30420;SDS011;17218;54.070;10.012;2024-01-30T04:27:36;7.65;;;5.05;;
30420;SDS011;17218;54.070;10.012;2024-01-30T04:30:03;8.00;;;4.57;;
30420;SDS011;17218;54.070;10.012;2024-01-30T04:32:31;7.57;;;4.50;;
30420;SDS011;17218;54.070;10.012;2024-01-30T04:34:58;5.77;;;4.47;;
30420;SDS011;17218;54.070;10.012;2024-01-30T04:37:24;6.97;;;4.53;;
30420;SDS011;17218;54.070;10.012;2024-01-30T04:39:53;5.33;;;4.30;;
30420;SDS011;17218;54.070;10.012;2024-01-30T04:42:19;7.67;;;4.67;;
30420;SDS011;17218;54.070;10.012;2024-01-30T04:44:46;7.40;;;4.60;;
30420;SDS011;17218;54.070;10.012;2024-01-30T04:47:13;6.73;;;4.60;;
30420;SDS011;17218;54.070;10.012;2024-01-30T04:49:39;7.90;;;4.37;;
30420;SDS011;17218;54.070;10.012;2024-01-30T04:52:06;7.63;;;4.63;;
30420;SDS011;17218;54.070;10.012;2024-01-30T04:54:33;6.90;;;4.37;;
30420;SDS011;17218;54.070;10.012;2024-01-30T04:57:01;5.50;;;4.23;;
30420;SDS011;17218;54.070;10.012;2024-01-30T04:59:28;7.43;;;5.37;;
30420;SDS011;17218;54.070;10.012;2024-01-30T05:01:54;7.20;;;4.23;;
30420;SDS011;17218;54.070;10.012;2024-01-30T05:04:21;7.07;;;4.17;;
30420;SDS011;17218;54.070;10.012;2024-01-30T05:06:47;6.57;;;4.67;;
30420;SDS011;17218;54.070;10.012;2024-01-30T05:09:14;7.13;;;4.57;;
30420;SDS011;17218;54.070;10.012;2024-01-30T05:11:40;6.53;;;4.80;;
30420;SDS011;17218;54.070;10.012;2024-01-30T05:14:09;6.40;;;4.13;;
30420;SDS011;17218;54.070;10.012;2024-01-30T05:16:36;5.93;;;4.30;;
30420;SDS011;17218;54.070;10.012;2024-01-30T05:19:03;7.30;;;4.53;;
30420;SDS011;17218;54.070;10.012;2024-01-30T05:21:30;7.17;;;5.00;;
30420;SDS011;17218;54.070;10.012;2024-01-30T05:23:56;7.20;;;4.47;;
30420;SDS011;17218;54.070;10.012;2024-01-30T05:26:23;8.47;;;4.60;;
30420;SDS011;17218;54.070;10.012;2024-01-30T05:28:49;7.60;;;4.73;;
30420;SDS011;17218;54.070;10.012;2024-01-30T05:31:18;6.80;;;4.50;;
30420;SDS011;17218;54.070;10.012;2024-01-30T05:33:44;8.60;;;5.63;;
30420;SDS011;17218;54.070;10.012;2024-01-30T05:36:11;9.57;;;4.87;;
30420;SDS011;17218;54.070;10.012;2024-01-30T05:38:38;8.37;;;4.90;;
30420;SDS011;17218;54.070;10.012;2024-01-30T05:41:04;4.70;;;3.90;;
30420;SDS011;17218;54.070;10.012;2024-01-30T05:43:31;6.20;;;4.70;;
30420;SDS011;17218;54.070;10.012;2024-01-30T05:45:57;6.90;;;5.00;;
30420;SDS011;17218;54.070;10.012;2024-01-30T05:48:25;8.23;;;5.27;;
30420;SDS011;17218;54.070;10.012;2024-01-30T05:50:52;8.27;;;5.10;;
30420;SDS011;17218;54.070;10.012;2024-01-30T05:53:18;7.77;;;5.17;;
30420;SDS011;17218;54.070;10.012;2024-01-30T05:55:45;10.37;;;6.13;;
30420;SDS011;17218;54.070;10.012;2024-01-30T05:58:11;12.00;;;5.97;;
30420;SDS011;17218;54.070;10.012;2024-01-30T06:00:38;8.50;;;5.53;;
30420;SDS011;17218;54.070;10.012;2024-01-30T06:03:05;9.50;;;6.30;;
30420;SDS011;17218;54.070;10.012;2024-01-30T06:05:33;12.83;;;6.77;;
30420;SDS011;17218;54.070;10.012;2024-01-30T06:08:00;9.03;;;5.53;;
30420;SDS011;17218;54.070;10.012;2024-01-30T06:10:26;11.27;;;5.93;;
30420;SDS011;17218;54.070;10.012;2024-01-30T06:12:53;7.07;;;5.33;;
30420;SDS011;17218;54.070;10.012;2024-01-30T06:15:19;7.60;;;5.40;;
30420;SDS011;17218;54.070;10.012;2024-01-30T06:17:48;8.27;;;5.60;;
30420;SDS011;17218;54.070;10.012;2024-01-30T06:20:15;7.80;;;5.77;;
30420;SDS011;17218;54.070;10.012;2024-01-30T06:22:43;9.87;;;6.23;;
30420;SDS011;17218;54.070;10.012;2024-01-30T06:25:09;13.37;;;6.93;;
30420;SDS011;17218;54.070;10.012;2024-01-30T06:27:37;12.17;;;6.83;;
30420;SDS011;17218;54.070;10.012;2024-01-30T06:30:04;10.60;;;6.53;;
30420;SDS011;17218;54.070;10.012;2024-01-30T06:32:31;11.43;;;6.13;;
30420;SDS011;17218;54.070;10.012;2024-01-30T06:34:59;10.23;;;6.10;;
30420;SDS011;17218;54.070;10.012;2024-01-30T06:37:25;7.40;;;5.80;;
30420;SDS011;17218;54.070;10.012;2024-01-30T06:39:53;10.60;;;6.10;;
30420;SDS011;17218;54.070;10.012;2024-01-30T06:42:20;8.30;;;6.10;;
30420;SDS011;17218;54.070;10.012;2024-01-30T06:44:46;9.63;;;6.13;;
30420;SDS011;17218;54.070;10.012;2024-01-30T06:47:13;10.97;;;6.53;;
30420;SDS011;17218;54.070;10.012;2024-01-30T06:49:39;7.90;;;6.03;;
30420;SDS011;17218;54.070;10.012;2024-01-30T06:52:07;9.53;;;6.73;;
30420;SDS011;17218;54.070;10.012;2024-01-30T06:54:34;10.53;;;6.93;;
30420;SDS011;17218;54.070;10.012;2024-01-30T06:57:02;10.87;;;6.20;;
30420;SDS011;17218;54.070;10.012;2024-01-30T06:59:29;14.27;;;6.67;;
30420;SDS011;17218;54.070;10.012;2024-01-30T07:01:55;8.63;;;5.57;;
30420;SDS011;17218;54.070;10.012;2024-01-30T07:04:22;9.40;;;5.77;;
30420;SDS011;17218;54.070;10.012;2024-01-30T07:06:48;10.93;;;7.03;;
30420;SDS011;17218;54.070;10.012;2024-01-30T07:09:15;11.30;;;6.00;;
30420;SDS011;17218;54.070;10.012;2024-01-30T07:11:41;10.30;;;6.50;;
30420;SDS011;17218;54.070;10.012;2024-01-30T07:14:10;7.93;;;6.07;;
30420;SDS011;17218;54.070;10.012;2024-01-30T07:16:36;11.80;;;6.90;;
30420;SDS011;17218;54.070;10.012;2024-01-30T07:19:03;12.63;;;6.00;;
30420;SDS011;17218;54.070;10.012;2024-01-30T07:21:29;11.23;;;6.07;;
30420;SDS011;17218;54.070;10.012;2024-01-30T07:23:56;10.37;;;6.90;;
30420;SDS011;17218;54.070;10.012;2024-01-30T07:26:23;9.73;;;5.97;;
30420;SDS011;17218;54.070;10.012;2024-01-30T07:28:49;12.93;;;6.50;;
30420;SDS011;17218;54.070;10.012;2024-01-30T07:31:17;11.70;;;6.80;;
30420;SDS011;17218;54.070;10.012;2024-01-30T07:33:45;8.90;;;5.33;;
30420;SDS011;17218;54.070;10.012;2024-01-30T07:36:12;11.17;;;7.17;;
30420;SDS011;17218;54.070;10.012;2024-01-30T07:38:39;12.40;;;6.63;;
30420;SDS011;17218;54.070;10.012;2024-01-30T07:41:05;13.80;;;6.70;;
30420;SDS011;17218;54.070;10.012;2024-01-30T07:43:35;12.70;;;7.40;;
30420;SDS011;17218;54.070;10.012;2024-01-30T07:46:01;10.40;;;6.83;;
30420;SDS011;17218;54.070;10.012;2024-01-30T07:48:29;7.97;;;5.50;;
30420;SDS011;17218;54.070;10.012;2024-01-30T07:50:56;10.37;;;7.13;;
30420;SDS011;17218;54.070;10.012;2024-01-30T07:53:22;11.87;;;7.30;;
30420;SDS011;17218;54.070;10.012;2024-01-30T07:55:49;10.27;;;7.30;;
30420;SDS011;17218;54.070;10.012;2024-01-30T07:58:15;13.90;;;6.10;;
30420;SDS011;17218;54.070;10.012;2024-01-30T08:00:42;11.60;;;7.40;;
30420;SDS011;17218;54.070;10.012;2024-01-30T08:03:08;9.93;;;6.50;;
30420;SDS011;17218;54.070;10.012;2024-01-30T08:05:36;11.57;;;6.77;;
30420;SDS011;17218;54.070;10.012;2024-01-30T08:08:04;10.73;;;6.17;;
30420;SDS011;17218;54.070;10.012;2024-01-30T08:10:31;12.10;;;7.77;;
30420;SDS011;17218;54.070;10.012;2024-01-30T08:12:57;11.00;;;6.77;;
30420;SDS011;17218;54.070;10.012;2024-01-30T08:15:24;11.40;;;6.87;;
30420;SDS011;17218;54.070;10.012;2024-01-30T08:17:50;10.57;;;6.97;;
30420;SDS011;17218;54.070;10.012;2024-01-30T08:20:20;12.63;;;6.30;;
30420;SDS011;17218;54.070;10.012;2024-01-30T08:22:48;9.20;;;6.50;;
30420;SDS011;17218;54.070;10.012;2024-01-30T08:25:15;13.23;;;7.10;;
30420;SDS011;17218;54.070;10.012;2024-01-30T08:27:41;10.23;;;6.37;;
30420;SDS011;17218;54.070;10.012;2024-01-30T08:30:08;11.00;;;7.87;;
30420;SDS011;17218;54.070;10.012;2024-01-30T08:32:35;8.67;;;6.30;;
30420;SDS011;17218;54.070;10.012;2024-01-30T08:35:02;10.10;;;6.67;;
30420;SDS011;17218;54.070;10.012;2024-01-30T08:37:28;9.17;;;6.13;;
30420;SDS011;17218;54.070;10.012;2024-01-30T08:39:56;10.33;;;6.87;;
30420;SDS011;17218;54.070;10.012;2024-01-30T08:42:23;9.03;;;5.97;;
30420;SDS011;17218;54.070;10.012;2024-01-30T08:44:50;10.50;;;6.23;;
30420;SDS011;17218;54.070;10.012;2024-01-30T08:47:18;11.30;;;6.60;;
30420;SDS011;17218;54.070;10.012;2024-01-30T08:49:44;10.20;;;6.30;;
30420;SDS011;17218;54.070;10.012;2024-01-30T08:52:11;10.87;;;6.50;;
30420;SDS011;17218;54.070;10.012;2024-01-30T08:54:37;9.43;;;6.70;;
30420;SDS011;17218;54.070;10.012;2024-01-30T08:57:06;9.50;;;6.03;;
30420;SDS011;17218;54.070;10.012;2024-01-30T08:59:32;8.57;;;5.87;;
30420;SDS011;17218;54.070;10.012;2024-01-30T09:01:59;10.63;;;6.50;;
30420;SDS011;17218;54.070;10.012;2024-01-30T09:04:25;10.48;;;6.00;;
30420;SDS011;17218;54.070;10.012;2024-01-30T09:06:52;11.55;;;6.82;;
30420;SDS011;17218;54.070;10.012;2024-01-30T09:09:19;10.37;;;6.30;;
30420;SDS011;17218;54.070;10.012;2024-01-30T09:11:45;12.85;;;5.80;;
30420;SDS011;17218;54.070;10.012;2024-01-30T09:14:13;10.88;;;6.75;;
30420;SDS011;17218;54.070;10.012;2024-01-30T09:16:40;8.38;;;5.72;;
30420;SDS011;17218;54.070;10.012;2024-01-30T09:19:06;12.23;;;6.75;;
30420;SDS011;17218;54.070;10.012;2024-01-30T09:21:33;8.02;;;6.13;;
30420;SDS011;17218;54.070;10.012;2024-01-30T09:24:01;10.15;;;6.70;;
30420;SDS011;17218;54.070;10.012;2024-01-30T09:26:29;10.07;;;5.95;;
30420;SDS011;17218;54.070;10.012;2024-01-30T09:28:55;11.53;;;6.40;;
30420;SDS011;17218;54.070;10.012;2024-01-30T09:31:23;9.60;;;6.22;;
30420;SDS011;17218;54.070;10.012;2024-01-30T09:33:49;12.15;;;6.60;;
30420;SDS011;17218;54.070;10.012;2024-01-30T09:36:18;9.18;;;6.05;;
30420;SDS011;17218;54.070;10.012;2024-01-30T09:38:45;10.03;;;6.03;;
30420;SDS011;17218;54.070;10.012;2024-01-30T09:41:12;7.55;;;5.95;;
30420;SDS011;17218;54.070;10.012;2024-01-30T09:43:39;7.78;;;5.95;;
30420;SDS011;17218;54.070;10.012;2024-01-30T09:46:06;9.82;;;6.63;;
30420;SDS011;17218;54.070;10.012;2024-01-30T09:48:39;9.70;;;7.22;;
30420;SDS011;17218;54.070;10.012;2024-01-30T09:51:07;10.55;;;6.60;;
30420;SDS011;17218;54.070;10.012;2024-01-30T09:53:34;11.63;;;6.55;;
30420;SDS011;17218;54.070;10.012;2024-01-30T09:56:02;9.50;;;6.35;;
30420;SDS011;17218;54.070;10.012;2024-01-30T09:58:28;10.43;;;6.57;;
30420;SDS011;17218;54.070;10.012;2024-01-30T10:00:55;10.07;;;6.43;;
30420;SDS011;17218;54.070;10.012;2024-01-30T10:03:21;10.68;;;6.75;;
30420;SDS011;17218;54.070;10.012;2024-01-30T10:05:50;8.82;;;6.05;;
30420;SDS011;17218;54.070;10.012;2024-01-30T10:08:17;7.57;;;5.82;;
30420;SDS011;17218;54.070;10.012;2024-01-30T10:10:45;8.15;;;5.85;;
30420;SDS011;17218;54.070;10.012;2024-01-30T10:13:11;9.35;;;6.45;;
30420;SDS011;17218;54.070;10.012;2024-01-30T10:15:38;10.45;;;6.57;;
30420;SDS011;17218;54.070;10.012;2024-01-30T10:18:05;8.30;;;6.30;;
30420;SDS011;17218;54.070;10.012;2024-01-30T10:20:32;11.45;;;6.20;;
30420;SDS011;17218;54.070;10.012;2024-01-30T10:23:00;10.75;;;6.93;;
30420;SDS011;17218;54.070;10.012;2024-01-30T10:25:27;9.63;;;6.45;;
30420;SDS011;17218;54.070;10.012;2024-01-30T10:27:53;10.00;;;6.22;;
30420;SDS011;17218;54.070;10.012;2024-01-30T10:30:20;9.88;;;6.38;;
30420;SDS011;17218;54.070;10.012;2024-01-30T10:32:47;10.63;;;7.45;;
30420;SDS011;17218;54.070;10.012;2024-01-30T10:35:14;9.45;;;6.15;;
30420;SDS011;17218;54.070;10.012;2024-01-30T10:37:41;9.95;;;6.90;;
30420;SDS011;17218;54.070;10.012;2024-01-30T10:40:12;9.82;;;6.57;;
30420;SDS011;17218;54.070;10.012;2024-01-30T10:42:42;9.93;;;6.65;;
30420;SDS011;17218;54.070;10.012;2024-01-30T10:45:09;7.50;;;6.18;;
30420;SDS011;17218;54.070;10.012;2024-01-30T10:47:37;10.38;;;6.50;;
30420;SDS011;17218;54.070;10.012;2024-01-30T10:50:07;9.10;;;6.10;;
30420;SDS011;17218;54.070;10.012;2024-01-30T10:52:35;10.85;;;6.78;;
30420;SDS011;17218;54.070;10.012;2024-01-30T10:55:02;10.63;;;6.18;;
30420;SDS011;17218;54.070;10.012;2024-01-30T10:57:32;10.13;;;6.28;;
30420;SDS011;17218;54.070;10.012;2024-01-30T11:00:00;10.90;;;6.75;;
30420;SDS011;17218;54.070;10.012;2024-01-30T11:02:30;9.68;;;6.30;;
30420;SDS011;17218;54.070;10.012;2024-01-30T11:04:58;10.27;;;6.25;;
30420;SDS011;17218;54.070;10.012;2024-01-30T11:07:26;7.65;;;5.13;;
30420;SDS011;17218;54.070;10.012;2024-01-30T11:10:01;10.77;;;6.50;;
30420;SDS011;17218;54.070;10.012;2024-01-30T11:12:29;9.82;;;6.18;;
30420;SDS011;17218;54.070;10.012;2024-01-30T11:15:03;10.63;;;6.75;;
30420;SDS011;17218;54.070;10.012;2024-01-30T11:17:39;9.10;;;6.50;;
30420;SDS011;17218;54.070;10.012;2024-01-30T11:20:09;8.18;;;5.50;;
30420;SDS011;17218;54.070;10.012;2024-01-30T11:22:36;8.73;;;5.38;;
30420;SDS011;17218;54.070;10.012;2024-01-30T11:25:03;6.97;;;5.63;;
30420;SDS011;17218;54.070;10.012;2024-01-30T11:27:30;10.02;;;6.38;;
30420;SDS011;17218;54.070;10.012;2024-01-30T11:30:00;9.93;;;6.10;;
30420;SDS011;17218;54.070;10.012;2024-01-30T11:32:29;7.68;;;5.30;;
30420;SDS011;17218;54.070;10.012;2024-01-30T11:34:55;7.28;;;5.63;;
30420;SDS011;17218;54.070;10.012;2024-01-30T11:37:22;9.35;;;5.60;;
30420;SDS011;17218;54.070;10.012;2024-01-30T11:39:52;10.05;;;5.72;;
30420;SDS011;17218;54.070;10.012;2024-01-30T11:42:19;10.73;;;6.43;;
30420;SDS011;17218;54.070;10.012;2024-01-30T11:44:49;10.07;;;6.07;;
30420;SDS011;17218;54.070;10.012;2024-01-30T11:47:17;11.65;;;6.85;;
30420;SDS011;17218;54.070;10.012;2024-01-30T11:49:44;9.13;;;6.43;;
30420;SDS011;17218;54.070;10.012;2024-01-30T11:52:11;8.25;;;6.40;;
30420;SDS011;17218;54.070;10.012;2024-01-30T11:54:39;9.73;;;6.13;;
30420;SDS011;17218;54.070;10.012;2024-01-30T11:57:06;14.38;;;5.97;;
30420;SDS011;17218;54.070;10.012;2024-01-30T11:59:32;8.57;;;6.13;;
30420;SDS011;17218;54.070;10.012;2024-01-30T12:01:59;7.97;;;5.65;;
30420;SDS011;17218;54.070;10.012;2024-01-30T12:04:28;9.18;;;6.20;;
30420;SDS011;17218;54.070;10.012;2024-01-30T12:06:55;7.65;;;6.05;;
30420;SDS011;17218;54.070;10.012;2024-01-30T12:09:22;9.55;;;6.18;;
30420;SDS011;17218;54.070;10.012;2024-01-30T12:11:49;9.52;;;6.07;;
30420;SDS011;17218;54.070;10.012;2024-01-30T12:14:16;10.95;;;7.00;;
30420;SDS011;17218;54.070;10.012;2024-01-30T12:16:47;9.23;;;5.43;;
30420;SDS011;17218;54.070;10.012;2024-01-30T12:19:20;8.27;;;6.13;;
30420;SDS011;17218;54.070;10.012;2024-01-30T12:21:53;9.95;;;6.53;;
30420;SDS011;17218;54.070;10.012;2024-01-30T12:24:20;12.98;;;6.07;;
30420;SDS011;17218;54.070;10.012;2024-01-30T12:26:46;8.80;;;5.78;;
30420;SDS011;17218;54.070;10.012;2024-01-30T12:29:14;10.80;;;5.85;;
30420;SDS011;17218;54.070;10.012;2024-01-30T12:31:41;9.18;;;6.20;;
30420;SDS011;17218;54.070;10.012;2024-01-30T12:34:08;10.63;;;5.88;;
30420;SDS011;17218;54.070;10.012;2024-01-30T12:36:35;10.05;;;6.60;;
30420;SDS011;17218;54.070;10.012;2024-01-30T12:39:03;7.63;;;5.50;;
30420;SDS011;17218;54.070;10.012;2024-01-30T12:41:30;10.52;;;6.15;;
30420;SDS011;17218;54.070;10.012;2024-01-30T12:43:57;9.93;;;6.35;;
30420;SDS011;17218;54.070;10.012;2024-01-30T12:46:25;11.50;;;6.72;;
30420;SDS011;17218;54.070;10.012;2024-01-30T12:48:53;8.70;;;5.97;;
30420;SDS011;17218;54.070;10.012;2024-01-30T12:51:20;9.75;;;6.00;;
30420;SDS011;17218;54.070;10.012;2024-01-30T12:53:46;9.98;;;5.85;;
30420;SDS011;17218;54.070;10.012;2024-01-30T12:56:15;8.88;;;5.68;;
30420;SDS011;17218;54.070;10.012;2024-01-30T12:58:42;11.95;;;6.72;;
30420;SDS011;17218;54.070;10.012;2024-01-30T13:01:08;11.85;;;6.10;;
30420;SDS011;17218;54.070;10.012;2024-01-30T13:03:35;9.07;;;6.18;;
30420;SDS011;17218;54.070;10.012;2024-01-30T13:06:02;9.00;;;6.47;;
30420;SDS011;17218;54.070;10.012;2024-01-30T13:08:29;10.10;;;7.13;;
30420;SDS011;17218;54.070;10.012;2024-01-30T13:10:55;9.00;;;6.15;;
30420;SDS011;17218;54.070;10.012;2024-01-30T13:13:23;13.82;;;6.43;;
30420;SDS011;17218;54.070;10.012;2024-01-30T13:15:50;10.05;;;6.22;;
30420;SDS011;17218;54.070;10.012;2024-01-30T13:18:16;9.30;;;6.85;;
30420;SDS011;17218;54.070;10.012;2024-01-30T13:20:43;7.45;;;5.72;;
30420;SDS011;17218;54.070;10.012;2024-01-30T13:23:09;8.73;;;6.68;;
30420;SDS011;17218;54.070;10.012;2024-01-30T13:25:35;10.60;;;6.63;;
30420;SDS011;17218;54.070;10.012;2024-01-30T13:28:02;11.05;;;6.45;;
30420;SDS011;17218;54.070;10.012;2024-01-30T13:30:30;10.65;;;6.00;;
30420;SDS011;17218;54.070;10.012;2024-01-30T13:32:57;11.05;;;6.20;;
30420;SDS011;17218;54.070;10.012;2024-01-30T13:35:23;11.10;;;6.53;;
30420;SDS011;17218;54.070;10.012;2024-01-30T13:37:49;9.32;;;6.28;;
30420;SDS011;17218;54.070;10.012;2024-01-30T13:40:16;9.23;;;6.07;;
30420;SDS011;17218;54.070;10.012;2024-01-30T13:42:43;10.90;;;6.65;;
30420;SDS011;17218;54.070;10.012;2024-01-30T13:45:09;9.45;;;6.55;;
30420;SDS011;17218;54.070;10.012;2024-01-30T13:47:37;10.27;;;6.38;;
30420;SDS011;17218;54.070;10.012;2024-01-30T13:50:04;11.88;;;7.10;;
30420;SDS011;17218;54.070;10.012;2024-01-30T13:52:31;11.63;;;6.63;;
30420;SDS011;17218;54.070;10.012;2024-01-30T13:54:57;10.77;;;6.30;;
30420;SDS011;17218;54.070;10.012;2024-01-30T13:57:24;10.35;;;6.95;;
30420;SDS011;17218;54.070;10.012;2024-01-30T13:59:50;9.07;;;7.20;;
30420;SDS011;17218;54.070;10.012;2024-01-30T14:02:17;12.77;;;6.95;;
30420;SDS011;17218;54.070;10.012;2024-01-30T14:04:45;10.02;;;7.13;;
30420;SDS011;17218;54.070;10.012;2024-01-30T14:07:11;7.97;;;5.93;;
30420;SDS011;17218;54.070;10.012;2024-01-30T14:09:38;10.20;;;6.13;;
30420;SDS011;17218;54.070;10.012;2024-01-30T14:12:05;11.27;;;6.22;;
30420;SDS011;17218;54.070;10.012;2024-01-30T14:14:32;10.73;;;6.45;;
30420;SDS011;17218;54.070;10.012;2024-01-30T14:16:58;10.27;;;6.57;;
30420;SDS011;17218;54.070;10.012;2024-01-30T14:19:25;11.45;;;6.57;;
30420;SDS011;17218;54.070;10.012;2024-01-30T14:21:53;10.07;;;6.13;;
30420;SDS011;17218;54.070;10.012;2024-01-30T14:24:19;10.27;;;6.78;;
30420;SDS011;17218;54.070;10.012;2024-01-30T14:26:46;11.98;;;7.13;;